sensor_id;sensor_type;location;lat;lon;timestamp;P1;durP1;ratioP1;P2;durP2;ratioP2
29452;SDS011;16424;50.956;5.320;2022-10-26T00:00:50;7.97;;;4.50;;
29452;SDS011;16424;50.956;5.320;2022-10-26T00:03:16;8.90;;;4.35;;
29452;SDS011;16424;50.956;5.320;2022-10-26T00:05:42;12.30;;;4.15;;
29452;SDS011;16424;50.956;5.320;2022-10-26T00:08:08;9.85;;;3.85;;
29452;SDS011;16424;50.956;5.320;2022-10-26T00:10:34;11.35;;;4.47;;
29452;SDS011;16424;50.956;5.320;2022-10-26T00:13:01;8.25;;;3.88;;
29452;SDS011;16424;50.956;5.320;2022-10-26T00:15:27;7.43;;;4.07;;
29452;SDS011;16424;50.956;5.320;2022-10-26T00:17:54;9.50;;;4.38;;
29452;SDS011;16424;50.956;5.320;2022-10-26T00:20:19;9.13;;;4.22;;
29452;SDS011;16424;50.956;5.320;2022-10-26T00:22:45;7.10;;;3.85;;
29452;SDS011;16424;50.956;5.320;2022-10-26T00:25:10;9.70;;;4.03;;
29452;SDS011;16424;50.956;5.320;2022-10-26T00:27:36;12.38;;;4.55;;
29452;SDS011;16424;50.956;5.320;2022-10-26T00:30:05;12.55;;;3.90;;
29452;SDS011;16424;50.956;5.320;2022-10-26T00:32:31;14.32;;;4.25;;
29452;SDS011;16424;50.956;5.320;2022-10-26T00:34:58;7.10;;;3.95;;
29452;SDS011;16424;50.956;5.320;2022-10-26T00:37:24;10.27;;;4.45;;
29452;SDS011;16424;50.956;5.320;2022-10-26T00:39:50;11.55;;;4.38;;
29452;SDS011;16424;50.956;5.320;2022-10-26T00:42:17;6.85;;;4.63;;
29452;SDS011;16424;50.956;5.320;2022-10-26T00:47:58;8.90;;;3.80;;
29452;SDS011;16424;50.956;5.320;2022-10-26T00:50:11;10.43;;;4.45;;
29452;SDS011;16424;50.956;5.320;2022-10-26T00:52:52;10.93;;;4.22;;
29452;SDS011;16424;50.956;5.320;2022-10-26T00:55:20;7.63;;;4.25;;
29452;SDS011;16424;50.956;5.320;2022-10-26T00:57:50;6.60;;;4.15;;
29452;SDS011;16424;50.956;5.320;2022-10-26T01:00:18;9.70;;;3.63;;
29452;SDS011;16424;50.956;5.320;2022-10-26T01:02:43;8.45;;;4.05;;
29452;SDS011;16424;50.956;5.320;2022-10-26T01:05:11;16.88;;;6.32;;
29452;SDS011;16424;50.956;5.320;2022-10-26T01:07:38;18.65;;;7.32;;
29452;SDS011;16424;50.956;5.320;2022-10-26T01:10:05;21.98;;;6.45;;
29452;SDS011;16424;50.956;5.320;2022-10-26T01:12:31;12.70;;;4.53;;
29452;SDS011;16424;50.956;5.320;2022-10-26T01:14:57;15.07;;;4.80;;
29452;SDS011;16424;50.956;5.320;2022-10-26T01:28:06;11.00;;;3.28;;
29452;SDS011;16424;50.956;5.320;2022-10-26T01:30:46;5.40;;;2.70;;
29452;SDS011;16424;50.956;5.320;2022-10-26T01:35:50;15.20;;;3.22;;
29452;SDS011;16424;50.956;5.320;2022-10-26T01:38:31;7.60;;;2.70;;
29452;SDS011;16424;50.956;5.320;2022-10-26T01:43:58;12.40;;;3.13;;
29452;SDS011;16424;50.956;5.320;2022-10-26T01:46:38;8.95;;;3.38;;
29452;SDS011;16424;50.956;5.320;2022-10-26T01:49:10;12.55;;;3.67;;
29452;SDS011;16424;50.956;5.320;2022-10-26T01:51:41;6.15;;;2.83;;
29452;SDS011;16424;50.956;5.320;2022-10-26T01:54:08;6.53;;;3.00;;
29452;SDS011;16424;50.956;5.320;2022-10-26T01:56:37;12.25;;;3.38;;
29452;SDS011;16424;50.956;5.320;2022-10-26T01:59:25;8.15;;;2.65;;
29452;SDS011;16424;50.956;5.320;2022-10-26T02:13:32;5.50;;;2.35;;
29452;SDS011;16424;50.956;5.320;2022-10-26T02:15:55;10.00;;;2.67;;
29452;SDS011;16424;50.956;5.320;2022-10-26T02:18:26;4.43;;;2.17;;
29452;SDS011;16424;50.956;5.320;2022-10-26T02:21:00;6.40;;;2.40;;
29452;SDS011;16424;50.956;5.320;2022-10-26T02:23:29;6.43;;;2.50;;
29452;SDS011;16424;50.956;5.320;2022-10-26T02:25:58;9.90;;;2.63;;
29452;SDS011;16424;50.956;5.320;2022-10-26T02:28:28;13.63;;;4.40;;
29452;SDS011;16424;50.956;5.320;2022-10-26T02:30:58;6.22;;;2.47;;
29452;SDS011;16424;50.956;5.320;2022-10-26T02:33:27;7.78;;;2.60;;
29452;SDS011;16424;50.956;5.320;2022-10-26T02:35:55;5.95;;;2.38;;
29452;SDS011;16424;50.956;5.320;2022-10-26T02:38:24;8.52;;;2.83;;
29452;SDS011;16424;50.956;5.320;2022-10-26T02:40:56;4.97;;;2.78;;
29452;SDS011;16424;50.956;5.320;2022-10-26T02:43:23;7.85;;;2.58;;
29452;SDS011;16424;50.956;5.320;2022-10-26T02:46:02;6.95;;;2.15;;
29452;SDS011;16424;50.956;5.320;2022-10-26T02:48:35;7.88;;;2.20;;
29452;SDS011;16424;50.956;5.320;2022-10-26T02:53:40;8.13;;;2.28;;
29452;SDS011;16424;50.956;5.320;2022-10-26T02:56:16;8.70;;;2.72;;
29452;SDS011;16424;50.956;5.320;2022-10-26T02:58:46;7.60;;;2.08;;
29452;SDS011;16424;50.956;5.320;2022-10-26T03:01:15;6.63;;;2.60;;
29452;SDS011;16424;50.956;5.320;2022-10-26T03:03:41;8.38;;;2.25;;
29452;SDS011;16424;50.956;5.320;2022-10-26T03:06:07;7.65;;;2.33;;
29452;SDS011;16424;50.956;5.320;2022-10-26T03:08:33;8.90;;;3.03;;
29452;SDS011;16424;50.956;5.320;2022-10-26T03:10:58;11.95;;;3.00;;
29452;SDS011;16424;50.956;5.320;2022-10-26T03:13:24;7.63;;;2.55;;
29452;SDS011;16424;50.956;5.320;2022-10-26T03:15:49;11.77;;;3.35;;
29452;SDS011;16424;50.956;5.320;2022-10-26T03:18:18;8.73;;;3.25;;
29452;SDS011;16424;50.956;5.320;2022-10-26T03:20:44;12.48;;;2.80;;
29452;SDS011;16424;50.956;5.320;2022-10-26T03:23:09;6.30;;;2.35;;
29452;SDS011;16424;50.956;5.320;2022-10-26T03:25:36;7.40;;;2.47;;
29452;SDS011;16424;50.956;5.320;2022-10-26T03:28:02;5.70;;;2.40;;
29452;SDS011;16424;50.956;5.320;2022-10-26T03:30:28;11.43;;;2.53;;
29452;SDS011;16424;50.956;5.320;2022-10-26T03:32:55;5.80;;;1.98;;
29452;SDS011;16424;50.956;5.320;2022-10-26T03:35:21;5.25;;;2.13;;
29452;SDS011;16424;50.956;5.320;2022-10-26T03:37:53;4.15;;;2.00;;
29452;SDS011;16424;50.956;5.320;2022-10-26T03:40:19;6.28;;;3.00;;
29452;SDS011;16424;50.956;5.320;2022-10-26T03:42:44;8.90;;;2.30;;
29452;SDS011;16424;50.956;5.320;2022-10-26T03:45:10;7.63;;;2.30;;
29452;SDS011;16424;50.956;5.320;2022-10-26T03:47:45;7.85;;;2.05;;
29452;SDS011;16424;50.956;5.320;2022-10-26T03:50:12;6.82;;;1.80;;
29452;SDS011;16424;50.956;5.320;2022-10-26T03:52:39;6.90;;;1.92;;
29452;SDS011;16424;50.956;5.320;2022-10-26T03:55:05;6.57;;;2.42;;
29452;SDS011;16424;50.956;5.320;2022-10-26T03:57:32;24.98;;;2.40;;
29452;SDS011;16424;50.956;5.320;2022-10-26T03:59:57;7.57;;;2.17;;
29452;SDS011;16424;50.956;5.320;2022-10-26T04:02:23;7.47;;;3.00;;
29452;SDS011;16424;50.956;5.320;2022-10-26T04:04:49;7.22;;;2.13;;
29452;SDS011;16424;50.956;5.320;2022-10-26T04:07:14;5.22;;;2.92;;
29452;SDS011;16424;50.956;5.320;2022-10-26T04:09:41;8.13;;;2.03;;
29452;SDS011;16424;50.956;5.320;2022-10-26T04:12:06;4.88;;;1.90;;
29452;SDS011;16424;50.956;5.320;2022-10-26T04:14:32;10.30;;;2.47;;
29452;SDS011;16424;50.956;5.320;2022-10-26T04:16:58;7.43;;;1.83;;
29452;SDS011;16424;50.956;5.320;2022-10-26T04:19:24;5.68;;;1.98;;
29452;SDS011;16424;50.956;5.320;2022-10-26T04:21:50;9.80;;;2.20;;
29452;SDS011;16424;50.956;5.320;2022-10-26T04:24:16;4.93;;;2.25;;
29452;SDS011;16424;50.956;5.320;2022-10-26T04:26:41;4.40;;;1.60;;
29452;SDS011;16424;50.956;5.320;2022-10-26T04:29:09;5.95;;;1.80;;
29452;SDS011;16424;50.956;5.320;2022-10-26T04:31:34;5.80;;;2.08;;
29452;SDS011;16424;50.956;5.320;2022-10-26T04:34:00;6.88;;;2.28;;
29452;SDS011;16424;50.956;5.320;2022-10-26T04:36:26;7.32;;;2.15;;
29452;SDS011;16424;50.956;5.320;2022-10-26T04:38:51;10.43;;;2.97;;
29452;SDS011;16424;50.956;5.320;2022-10-26T04:41:17;4.63;;;1.95;;
29452;SDS011;16424;50.956;5.320;2022-10-26T04:43:49;10.80;;;2.67;;
29452;SDS011;16424;50.956;5.320;2022-10-26T04:46:15;6.95;;;1.77;;
29452;SDS011;16424;50.956;5.320;2022-10-26T04:48:41;13.60;;;2.90;;
29452;SDS011;16424;50.956;5.320;2022-10-26T04:51:07;7.55;;;2.10;;
29452;SDS011;16424;50.956;5.320;2022-10-26T04:53:32;10.80;;;2.08;;
29452;SDS011;16424;50.956;5.320;2022-10-26T04:55:59;4.78;;;2.00;;
29452;SDS011;16424;50.956;5.320;2022-10-26T04:58:26;8.95;;;2.10;;
29452;SDS011;16424;50.956;5.320;2022-10-26T05:00:52;8.07;;;3.05;;
29452;SDS011;16424;50.956;5.320;2022-10-26T05:03:18;5.22;;;1.63;;
29452;SDS011;16424;50.956;5.320;2022-10-26T05:05:43;4.30;;;1.73;;
29452;SDS011;16424;50.956;5.320;2022-10-26T05:08:09;4.00;;;1.25;;
29452;SDS011;16424;50.956;5.320;2022-10-26T05:10:35;3.30;;;1.23;;
29452;SDS011;16424;50.956;5.320;2022-10-26T05:13:01;4.90;;;1.50;;
29452;SDS011;16424;50.956;5.320;2022-10-26T05:15:27;13.07;;;1.52;;
29452;SDS011;16424;50.956;5.320;2022-10-26T05:17:56;4.95;;;1.05;;
29452;SDS011;16424;50.956;5.320;2022-10-26T05:20:24;2.03;;;1.00;;
29452;SDS011;16424;50.956;5.320;2022-10-26T05:22:54;4.15;;;0.95;;
29452;SDS011;16424;50.956;5.320;2022-10-26T05:25:20;2.83;;;1.05;;
29452;SDS011;16424;50.956;5.320;2022-10-26T05:27:46;3.92;;;1.10;;
29452;SDS011;16424;50.956;5.320;2022-10-26T05:30:12;4.88;;;1.70;;
29452;SDS011;16424;50.956;5.320;2022-10-26T05:32:37;4.07;;;1.08;;
29452;SDS011;16424;50.956;5.320;2022-10-26T05:35:03;6.82;;;0.90;;
29452;SDS011;16424;50.956;5.320;2022-10-26T05:37:29;2.35;;;0.88;;
29452;SDS011;16424;50.956;5.320;2022-10-26T05:39:54;4.13;;;1.25;;
29452;SDS011;16424;50.956;5.320;2022-10-26T05:42:20;5.97;;;1.35;;
29452;SDS011;16424;50.956;5.320;2022-10-26T05:44:46;3.55;;;1.42;;
29452;SDS011;16424;50.956;5.320;2022-10-26T05:47:11;1.48;;;0.88;;
29452;SDS011;16424;50.956;5.320;2022-10-26T05:49:37;3.33;;;1.08;;
29452;SDS011;16424;50.956;5.320;2022-10-26T05:52:03;4.20;;;1.10;;
29452;SDS011;16424;50.956;5.320;2022-10-26T05:54:28;7.22;;;1.25;;
29452;SDS011;16424;50.956;5.320;2022-10-26T05:56:54;2.70;;;0.95;;
29452;SDS011;16424;50.956;5.320;2022-10-26T05:59:20;2.05;;;0.90;;
29452;SDS011;16424;50.956;5.320;2022-10-26T06:07:15;3.63;;;1.20;;
29452;SDS011;16424;50.956;5.320;2022-10-26T06:09:44;3.45;;;1.02;;
29452;SDS011;16424;50.956;5.320;2022-10-26T06:12:10;5.65;;;1.52;;
29452;SDS011;16424;50.956;5.320;2022-10-26T06:14:37;3.03;;;0.90;;
29452;SDS011;16424;50.956;5.320;2022-10-26T06:28:20;7.65;;;1.48;;
29452;SDS011;16424;50.956;5.320;2022-10-26T06:30:56;4.45;;;1.30;;
29452;SDS011;16424;50.956;5.320;2022-10-26T06:33:22;2.83;;;1.30;;
29452;SDS011;16424;50.956;5.320;2022-10-26T06:38:25;4.75;;;1.85;;
29452;SDS011;16424;50.956;5.320;2022-10-26T06:40:54;2.80;;;1.55;;
29452;SDS011;16424;50.956;5.320;2022-10-26T06:43:25;5.78;;;1.40;;
29452;SDS011;16424;50.956;5.320;2022-10-26T06:48:31;6.22;;;2.30;;
29452;SDS011;16424;50.956;5.320;2022-10-26T06:51:12;2.58;;;0.80;;
29452;SDS011;16424;50.956;5.320;2022-10-26T06:53:42;4.43;;;1.65;;
29452;SDS011;16424;50.956;5.320;2022-10-26T06:56:15;3.65;;;1.50;;
29452;SDS011;16424;50.956;5.320;2022-10-26T06:58:42;7.22;;;1.60;;
29452;SDS011;16424;50.956;5.320;2022-10-26T07:01:09;5.47;;;1.20;;
29452;SDS011;16424;50.956;5.320;2022-10-26T07:03:36;2.47;;;1.27;;
29452;SDS011;16424;50.956;5.320;2022-10-26T07:06:02;5.32;;;1.45;;
29452;SDS011;16424;50.956;5.320;2022-10-26T07:08:29;7.60;;;1.40;;
29452;SDS011;16424;50.956;5.320;2022-10-26T07:10:56;8.98;;;2.03;;
29452;SDS011;16424;50.956;5.320;2022-10-26T07:13:22;6.93;;;1.38;;
29452;SDS011;16424;50.956;5.320;2022-10-26T07:15:47;5.18;;;1.55;;
29452;SDS011;16424;50.956;5.320;2022-10-26T07:18:13;6.32;;;1.38;;
29452;SDS011;16424;50.956;5.320;2022-10-26T07:20:39;4.20;;;1.00;;
29452;SDS011;16424;50.956;5.320;2022-10-26T07:23:06;10.10;;;1.50;;
29452;SDS011;16424;50.956;5.320;2022-10-26T07:25:35;9.07;;;2.08;;
29452;SDS011;16424;50.956;5.320;2022-10-26T07:28:04;5.85;;;1.15;;
29452;SDS011;16424;50.956;5.320;2022-10-26T07:30:37;6.75;;;1.35;;
29452;SDS011;16424;50.956;5.320;2022-10-26T07:33:10;6.22;;;1.45;;
29452;SDS011;16424;50.956;5.320;2022-10-26T07:35:38;7.72;;;1.90;;
29452;SDS011;16424;50.956;5.320;2022-10-26T07:38:04;5.03;;;1.55;;
29452;SDS011;16424;50.956;5.320;2022-10-26T07:40:30;6.40;;;1.40;;
29452;SDS011;16424;50.956;5.320;2022-10-26T07:42:57;3.38;;;1.70;;
29452;SDS011;16424;50.956;5.320;2022-10-26T07:45:24;5.18;;;1.95;;
29452;SDS011;16424;50.956;5.320;2022-10-26T07:47:50;5.90;;;1.30;;
29452;SDS011;16424;50.956;5.320;2022-10-26T07:50:16;6.50;;;1.73;;
29452;SDS011;16424;50.956;5.320;2022-10-26T07:52:41;9.38;;;1.75;;
29452;SDS011;16424;50.956;5.320;2022-10-26T07:55:08;6.47;;;1.60;;
29452;SDS011;16424;50.956;5.320;2022-10-26T07:57:34;4.68;;;1.27;;
29452;SDS011;16424;50.956;5.320;2022-10-26T08:00:00;3.85;;;1.23;;
29452;SDS011;16424;50.956;5.320;2022-10-26T08:02:28;6.07;;;1.67;;
29452;SDS011;16424;50.956;5.320;2022-10-26T08:04:53;4.13;;;1.52;;
29452;SDS011;16424;50.956;5.320;2022-10-26T08:07:19;5.22;;;1.63;;
29452;SDS011;16424;50.956;5.320;2022-10-26T08:09:45;3.78;;;1.50;;
29452;SDS011;16424;50.956;5.320;2022-10-26T08:12:11;6.65;;;1.67;;
29452;SDS011;16424;50.956;5.320;2022-10-26T08:14:40;3.67;;;1.10;;
29452;SDS011;16424;50.956;5.320;2022-10-26T08:17:06;5.20;;;1.88;;
29452;SDS011;16424;50.956;5.320;2022-10-26T08:19:33;7.93;;;1.50;;
29452;SDS011;16424;50.956;5.320;2022-10-26T08:21:58;6.32;;;1.55;;
29452;SDS011;16424;50.956;5.320;2022-10-26T08:24:24;10.13;;;1.67;;
29452;SDS011;16424;50.956;5.320;2022-10-26T08:26:50;6.72;;;1.27;;
29452;SDS011;16424;50.956;5.320;2022-10-26T08:29:15;8.23;;;1.70;;
29452;SDS011;16424;50.956;5.320;2022-10-26T08:31:41;5.45;;;1.42;;
29452;SDS011;16424;50.956;5.320;2022-10-26T08:34:07;5.90;;;1.65;;
29452;SDS011;16424;50.956;5.320;2022-10-26T08:36:32;8.20;;;1.20;;
29452;SDS011;16424;50.956;5.320;2022-10-26T08:39:00;1.67;;;1.33;;
29452;SDS011;16424;50.956;5.320;2022-10-26T08:41:32;4.45;;;1.50;;
29452;SDS011;16424;50.956;5.320;2022-10-26T08:44:05;7.43;;;1.58;;
29452;SDS011;16424;50.956;5.320;2022-10-26T08:46:52;8.05;;;1.73;;
29452;SDS011;16424;50.956;5.320;2022-10-26T08:49:22;6.23;;;2.17;;
29452;SDS011;16424;50.956;5.320;2022-10-26T08:51:55;7.40;;;1.83;;
29452;SDS011;16424;50.956;5.320;2022-10-26T08:54:34;8.52;;;1.40;;
29452;SDS011;16424;50.956;5.320;2022-10-26T08:57:03;3.35;;;1.65;;
29452;SDS011;16424;50.956;5.320;2022-10-26T08:59:49;7.75;;;1.38;;
29452;SDS011;16424;50.956;5.320;2022-10-26T09:02:23;3.42;;;1.83;;
29452;SDS011;16424;50.956;5.320;2022-10-26T09:04:50;4.15;;;1.73;;
29452;SDS011;16424;50.956;5.320;2022-10-26T09:10:07;6.60;;;1.45;;
29452;SDS011;16424;50.956;5.320;2022-10-26T09:13:02;6.78;;;1.38;;
29452;SDS011;16424;50.956;5.320;2022-10-26T09:18:27;5.10;;;1.60;;
29452;SDS011;16424;50.956;5.320;2022-10-26T09:26:28;6.28;;;1.42;;
29452;SDS011;16424;50.956;5.320;2022-10-26T09:29:00;7.25;;;2.10;;
29452;SDS011;16424;50.956;5.320;2022-10-26T09:31:29;4.82;;;1.67;;
29452;SDS011;16424;50.956;5.320;2022-10-26T09:34:05;3.80;;;2.22;;
29452;SDS011;16424;50.956;5.320;2022-10-26T09:36:32;7.28;;;1.63;;
29452;SDS011;16424;50.956;5.320;2022-10-26T09:41:43;4.75;;;1.17;;
29452;SDS011;16424;50.956;5.320;2022-10-26T09:47:05;7.40;;;1.52;;
29452;SDS011;16424;50.956;5.320;2022-10-26T09:49:53;7.85;;;1.55;;
29452;SDS011;16424;50.956;5.320;2022-10-26T09:52:23;6.38;;;1.10;;
29452;SDS011;16424;50.956;5.320;2022-10-26T09:54:49;5.97;;;1.30;;
29452;SDS011;16424;50.956;5.320;2022-10-26T09:57:15;4.22;;;1.48;;
29452;SDS011;16424;50.956;5.320;2022-10-26T09:59:43;4.22;;;0.88;;
29452;SDS011;16424;50.956;5.320;2022-10-26T10:04:57;3.63;;;1.35;;
29452;SDS011;16424;50.956;5.320;2022-10-26T10:07:23;5.80;;;1.20;;
29452;SDS011;16424;50.956;5.320;2022-10-26T10:10:07;6.93;;;1.30;;
29452;SDS011;16424;50.956;5.320;2022-10-26T10:12:40;8.43;;;1.75;;
29452;SDS011;16424;50.956;5.320;2022-10-26T10:15:15;5.20;;;1.30;;
29452;SDS011;16424;50.956;5.320;2022-10-26T10:17:51;2.13;;;1.20;;
29452;SDS011;16424;50.956;5.320;2022-10-26T10:20:32;4.32;;;1.05;;
29452;SDS011;16424;50.956;5.320;2022-10-26T10:22:59;3.00;;;0.88;;
29452;SDS011;16424;50.956;5.320;2022-10-26T10:28:19;6.20;;;1.60;;
29452;SDS011;16424;50.956;5.320;2022-10-26T10:33:23;4.07;;;1.30;;
29452;SDS011;16424;50.956;5.320;2022-10-26T10:36:00;6.22;;;1.30;;
29452;SDS011;16424;50.956;5.320;2022-10-26T10:38:27;10.45;;;1.00;;
29452;SDS011;16424;50.956;5.320;2022-10-26T10:40:54;3.58;;;1.55;;
29452;SDS011;16424;50.956;5.320;2022-10-26T10:43:22;5.72;;;1.40;;
29452;SDS011;16424;50.956;5.320;2022-10-26T10:45:50;6.25;;;1.70;;
29452;SDS011;16424;50.956;5.320;2022-10-26T10:48:22;5.45;;;1.73;;
29452;SDS011;16424;50.956;5.320;2022-10-26T10:50:55;8.57;;;2.08;;
29452;SDS011;16424;50.956;5.320;2022-10-26T10:59:11;4.10;;;0.97;;
29452;SDS011;16424;50.956;5.320;2022-10-26T11:01:50;5.88;;;1.80;;
29452;SDS011;16424;50.956;5.320;2022-10-26T11:07:21;3.97;;;1.20;;
29452;SDS011;16424;50.956;5.320;2022-10-26T11:09:49;4.80;;;1.30;;
29452;SDS011;16424;50.956;5.320;2022-10-26T11:12:18;6.47;;;1.05;;
29452;SDS011;16424;50.956;5.320;2022-10-26T11:15:02;3.88;;;1.48;;
29452;SDS011;16424;50.956;5.320;2022-10-26T11:24:15;8.10;;;1.38;;
29452;SDS011;16424;50.956;5.320;2022-10-26T11:32:21;3.70;;;1.05;;
29452;SDS011;16424;50.956;5.320;2022-10-26T11:40:12;4.95;;;0.85;;
29452;SDS011;16424;50.956;5.320;2022-10-26T11:43:13;3.53;;;1.30;;
29452;SDS011;16424;50.956;5.320;2022-10-26T11:45:59;3.47;;;1.13;;
29452;SDS011;16424;50.956;5.320;2022-10-26T11:48:46;1.63;;;0.90;;
29452;SDS011;16424;50.956;5.320;2022-10-26T11:51:42;7.32;;;1.85;;
29452;SDS011;16424;50.956;5.320;2022-10-26T11:54:12;5.10;;;0.85;;
29452;SDS011;16424;50.956;5.320;2022-10-26T11:56:44;3.47;;;1.00;;
29452;SDS011;16424;50.956;5.320;2022-10-26T11:59:17;3.10;;;0.90;;
29452;SDS011;16424;50.956;5.320;2022-10-26T12:01:49;4.85;;;1.10;;
29452;SDS011;16424;50.956;5.320;2022-10-26T12:04:18;3.85;;;0.70;;
29452;SDS011;16424;50.956;5.320;2022-10-26T12:06:46;3.55;;;1.50;;
29452;SDS011;16424;50.956;5.320;2022-10-26T12:09:16;3.88;;;1.13;;
29452;SDS011;16424;50.956;5.320;2022-10-26T12:17:10;5.72;;;1.00;;
29452;SDS011;16424;50.956;5.320;2022-10-26T12:19:54;3.08;;;0.98;;
29452;SDS011;16424;50.956;5.320;2022-10-26T12:22:32;5.90;;;1.08;;
29452;SDS011;16424;50.956;5.320;2022-10-26T12:35:09;7.18;;;1.10;;
29452;SDS011;16424;50.956;5.320;2022-10-26T12:38:00;5.07;;;0.95;;
29452;SDS011;16424;50.956;5.320;2022-10-26T12:40:46;8.93;;;1.13;;
29452;SDS011;16424;50.956;5.320;2022-10-26T12:45:42;5.00;;;1.02;;
29452;SDS011;16424;50.956;5.320;2022-10-26T12:48:38;2.78;;;0.88;;
29452;SDS011;16424;50.956;5.320;2022-10-26T12:54:02;3.85;;;0.80;;
29452;SDS011;16424;50.956;5.320;2022-10-26T12:56:43;3.92;;;1.38;;
29452;SDS011;16424;50.956;5.320;2022-10-26T13:02:02;4.07;;;0.65;;
29452;SDS011;16424;50.956;5.320;2022-10-26T13:07:49;2.78;;;0.60;;
29452;SDS011;16424;50.956;5.320;2022-10-26T13:10:17;2.92;;;0.70;;
29452;SDS011;16424;50.956;5.320;2022-10-26T13:12:49;1.90;;;0.90;;
29452;SDS011;16424;50.956;5.320;2022-10-26T13:15:25;8.93;;;0.95;;
29452;SDS011;16424;50.956;5.320;2022-10-26T13:18:01;4.22;;;0.95;;
29452;SDS011;16424;50.956;5.320;2022-10-26T13:20:30;2.97;;;0.90;;
29452;SDS011;16424;50.956;5.320;2022-10-26T13:22:56;4.18;;;0.85;;
29452;SDS011;16424;50.956;5.320;2022-10-26T13:25:23;3.70;;;0.80;;
29452;SDS011;16424;50.956;5.320;2022-10-26T13:27:59;1.58;;;0.60;;
29452;SDS011;16424;50.956;5.320;2022-10-26T13:32:58;3.67;;;0.82;;
29452;SDS011;16424;50.956;5.320;2022-10-26T13:35:25;2.33;;;0.82;;
29452;SDS011;16424;50.956;5.320;2022-10-26T13:37:52;6.68;;;1.27;;
29452;SDS011;16424;50.956;5.320;2022-10-26T13:40:21;2.05;;;0.80;;
29452;SDS011;16424;50.956;5.320;2022-10-26T13:42:50;7.72;;;1.40;;
29452;SDS011;16424;50.956;5.320;2022-10-26T13:45:24;4.03;;;1.10;;
29452;SDS011;16424;50.956;5.320;2022-10-26T13:48:03;5.07;;;1.00;;
29452;SDS011;16424;50.956;5.320;2022-10-26T13:50:39;6.82;;;1.27;;
29452;SDS011;16424;50.956;5.320;2022-10-26T13:53:15;2.17;;;0.95;;
29452;SDS011;16424;50.956;5.320;2022-10-26T13:55:53;3.75;;;1.17;;
29452;SDS011;16424;50.956;5.320;2022-10-26T13:58:49;3.83;;;1.60;;
29452;SDS011;16424;50.956;5.320;2022-10-26T14:01:20;5.15;;;0.88;;
29452;SDS011;16424;50.956;5.320;2022-10-26T14:03:48;6.28;;;1.33;;
29452;SDS011;16424;50.956;5.320;2022-10-26T14:08:56;3.78;;;0.88;;
29452;SDS011;16424;50.956;5.320;2022-10-26T14:11:28;3.90;;;0.90;;
29452;SDS011;16424;50.956;5.320;2022-10-26T14:13:57;5.53;;;1.15;;
29452;SDS011;16424;50.956;5.320;2022-10-26T14:16:25;10.60;;;1.55;;
29452;SDS011;16424;50.956;5.320;2022-10-26T14:18:53;5.35;;;1.17;;
29452;SDS011;16424;50.956;5.320;2022-10-26T14:21:20;3.13;;;1.20;;
29452;SDS011;16424;50.956;5.320;2022-10-26T14:23:48;3.28;;;1.00;;
29452;SDS011;16424;50.956;5.320;2022-10-26T14:26:25;3.50;;;0.93;;
29452;SDS011;16424;50.956;5.320;2022-10-26T14:28:58;2.90;;;1.17;;
29452;SDS011;16424;50.956;5.320;2022-10-26T14:31:27;2.53;;;0.95;;
29452;SDS011;16424;50.956;5.320;2022-10-26T14:33:57;4.15;;;1.33;;
29452;SDS011;16424;50.956;5.320;2022-10-26T14:36:27;1.83;;;0.80;;
29452;SDS011;16424;50.956;5.320;2022-10-26T14:39:02;3.45;;;1.25;;
29452;SDS011;16424;50.956;5.320;2022-10-26T14:41:34;9.25;;;1.38;;
29452;SDS011;16424;50.956;5.320;2022-10-26T14:44:00;4.72;;;1.13;;
29452;SDS011;16424;50.956;5.320;2022-10-26T14:46:28;5.88;;;1.20;;
29452;SDS011;16424;50.956;5.320;2022-10-26T14:49:01;5.47;;;0.93;;
29452;SDS011;16424;50.956;5.320;2022-10-26T14:51:28;5.50;;;1.35;;
29452;SDS011;16424;50.956;5.320;2022-10-26T14:53:58;2.50;;;0.80;;
29452;SDS011;16424;50.956;5.320;2022-10-26T14:59:27;2.30;;;1.00;;
29452;SDS011;16424;50.956;5.320;2022-10-26T15:01:56;5.75;;;1.50;;
29452;SDS011;16424;50.956;5.320;2022-10-26T15:06:59;8.13;;;1.17;;
29452;SDS011;16424;50.956;5.320;2022-10-26T15:09:36;5.45;;;1.10;;
29452;SDS011;16424;50.956;5.320;2022-10-26T15:12:04;5.00;;;1.15;;
29452;SDS011;16424;50.956;5.320;2022-10-26T15:14:30;3.90;;;1.30;;
29452;SDS011;16424;50.956;5.320;2022-10-26T15:16:57;2.72;;;1.00;;
29452;SDS011;16424;50.956;5.320;2022-10-26T15:19:24;2.70;;;0.85;;
29452;SDS011;16424;50.956;5.320;2022-10-26T15:21:51;7.97;;;1.20;;
29452;SDS011;16424;50.956;5.320;2022-10-26T15:26:49;6.25;;;1.45;;
29452;SDS011;16424;50.956;5.320;2022-10-26T15:32:00;4.00;;;1.02;;
29452;SDS011;16424;50.956;5.320;2022-10-26T15:34:27;6.80;;;1.70;;
29452;SDS011;16424;50.956;5.320;2022-10-26T15:36:55;7.35;;;1.92;;
29452;SDS011;16424;50.956;5.320;2022-10-26T15:39:21;6.03;;;1.75;;
29452;SDS011;16424;50.956;5.320;2022-10-26T15:41:49;6.13;;;1.40;;
29452;SDS011;16424;50.956;5.320;2022-10-26T15:44:20;6.30;;;1.20;;
29452;SDS011;16424;50.956;5.320;2022-10-26T15:46:46;14.57;;;1.85;;
29452;SDS011;16424;50.956;5.320;2022-10-26T15:49:17;2.90;;;1.10;;
29452;SDS011;16424;50.956;5.320;2022-10-26T15:51:45;6.88;;;1.10;;
29452;SDS011;16424;50.956;5.320;2022-10-26T15:54:12;4.03;;;1.17;;
29452;SDS011;16424;50.956;5.320;2022-10-26T15:56:38;6.13;;;1.60;;
29452;SDS011;16424;50.956;5.320;2022-10-26T15:59:11;4.72;;;1.30;;
29452;SDS011;16424;50.956;5.320;2022-10-26T16:01:39;4.13;;;1.60;;
29452;SDS011;16424;50.956;5.320;2022-10-26T16:04:05;4.00;;;1.17;;
29452;SDS011;16424;50.956;5.320;2022-10-26T16:06:32;3.95;;;1.10;;
29452;SDS011;16424;50.956;5.320;2022-10-26T16:09:00;3.75;;;1.30;;
29452;SDS011;16424;50.956;5.320;2022-10-26T16:11:27;3.55;;;1.10;;
29452;SDS011;16424;50.956;5.320;2022-10-26T16:13:54;7.53;;;1.20;;
29452;SDS011;16424;50.956;5.320;2022-10-26T16:16:19;5.07;;;1.10;;
29452;SDS011;16424;50.956;5.320;2022-10-26T16:18:46;5.25;;;1.63;;
29452;SDS011;16424;50.956;5.320;2022-10-26T16:21:17;5.28;;;1.20;;
29452;SDS011;16424;50.956;5.320;2022-10-26T16:23:47;5.32;;;1.60;;
29452;SDS011;16424;50.956;5.320;2022-10-26T16:26:14;6.40;;;1.63;;
29452;SDS011;16424;50.956;5.320;2022-10-26T16:28:40;4.60;;;1.50;;
29452;SDS011;16424;50.956;5.320;2022-10-26T16:31:09;7.63;;;1.92;;
29452;SDS011;16424;50.956;5.320;2022-10-26T16:33:36;6.60;;;1.88;;
29452;SDS011;16424;50.956;5.320;2022-10-26T16:36:02;6.43;;;1.70;;
29452;SDS011;16424;50.956;5.320;2022-10-26T16:38:29;9.48;;;1.48;;
29452;SDS011;16424;50.956;5.320;2022-10-26T16:41:06;8.57;;;2.33;;
29452;SDS011;16424;50.956;5.320;2022-10-26T16:43:38;8.30;;;2.00;;
29452;SDS011;16424;50.956;5.320;2022-10-26T16:46:08;5.72;;;1.83;;
29452;SDS011;16424;50.956;5.320;2022-10-26T16:48:36;6.28;;;1.33;;
29452;SDS011;16424;50.956;5.320;2022-10-26T16:51:15;9.95;;;1.80;;
29452;SDS011;16424;50.956;5.320;2022-10-26T16:53:43;4.18;;;1.70;;
29452;SDS011;16424;50.956;5.320;2022-10-26T16:56:12;5.18;;;1.80;;
29452;SDS011;16424;50.956;5.320;2022-10-26T16:58:39;8.55;;;2.20;;
29452;SDS011;16424;50.956;5.320;2022-10-26T17:01:05;11.85;;;2.08;;
29452;SDS011;16424;50.956;5.320;2022-10-26T17:03:32;7.93;;;1.73;;
29452;SDS011;16424;50.956;5.320;2022-10-26T17:05:59;7.60;;;1.77;;
29452;SDS011;16424;50.956;5.320;2022-10-26T17:08:27;3.28;;;1.40;;
29452;SDS011;16424;50.956;5.320;2022-10-26T17:10:53;6.25;;;1.52;;
29452;SDS011;16424;50.956;5.320;2022-10-26T17:13:25;4.55;;;2.08;;
29452;SDS011;16424;50.956;5.320;2022-10-26T17:15:51;11.75;;;1.88;;
29452;SDS011;16424;50.956;5.320;2022-10-26T17:18:16;10.27;;;1.80;;
29452;SDS011;16424;50.956;5.320;2022-10-26T17:20:48;5.53;;;2.53;;
29452;SDS011;16424;50.956;5.320;2022-10-26T17:23:15;10.75;;;1.65;;
29452;SDS011;16424;50.956;5.320;2022-10-26T17:25:41;8.45;;;1.60;;
29452;SDS011;16424;50.956;5.320;2022-10-26T17:28:07;5.97;;;1.90;;